Orlando, Florida
Traffic Map
Current Weather Conditions
Orlando, Florida
Clear
Clear
11°
Feels Like: 11°
Wind Chill: 11° Ceiling: Unl
Heat Index: 11° Visibility: 10mi
Dew Point: Wind: 8mph
Humidity: 68% Direction: 350° (N)
Pressure: 30.3in Gusts: 0mph
Raw Report DataKORL 290153Z 35007KT 10SM CLR 11/05 A3030 RMK AO2 SLP264 T01060050
Traffic Incident Summary
Active as of:
Severity:
Category:
InformationThere was an issue retrieving the traffic information for this location. Please try a different location or try again shortly.
Advertisements
Track Severe Weather on mobile